ADDS METAR Data INFO
IDs: Format: Raw Decoded Include TAF

Data at: 2050 UTC 24 Jun 2018

KGVT 242030Z AUTO 18016G24KT 10SM CLR 36/19 A2983 RMK AO2
KGVT 242010Z AUTO 17019G23KT 10SM CLR 37/20 A2983 RMK AO2
KGVT 241950Z AUTO 16020G26KT 10SM CLR 37/19 A2982 RMK AO2
KGVT 241930Z AUTO 16021G26KT 10SM CLR 36/20 A2983 RMK AO2
KGVT 241910Z AUTO 18018G25KT 10SM CLR 36/19 A2984 RMK AO2
KGVT 241850Z AUTO 17014G23KT 10SM CLR 36/20 A2985 RMK AO2
KGVT 241830Z AUTO 18018G23KT 10SM SCT046 35/20 A2986 RMK AO2
KGVT 241810Z AUTO 15016KT 10SM SCT046 36/20 A2987 RMK AO2
KGVT 241750Z AUTO 19014G18KT 10SM SCT045 35/20 A2988 RMK AO2
KGVT 241730Z AUTO 15013G21KT 10SM CLR 35/20 A2989 RMK AO2
KGVT 241710Z AUTO 15014G20KT 10SM SCT039 SCT047 33/20 A2990 RMK AO2
KGVT 241650Z AUTO 16009KT 10SM BKN039 BKN045 33/21 A2991 RMK AO2
KGVT 241630Z AUTO 18011G20KT 10SM BKN037 BKN042 33/21 A2991 RMK AO2
KGVT 241610Z AUTO 17011G17KT 10SM BKN032 BKN040 32/21 A2991 RMK AO2
KGVT 241550Z AUTO 17013G16KT 10SM SCT029 BKN037 32/21 A2991 RMK AO2
KGVT 241530Z AUTO 16010G16KT 10SM BKN029 BKN035 32/22 A2991 RMK AO2
KGVT 241510Z AUTO 19014G20KT 10SM BKN027 BKN044 31/22 A2991 RMK AO2 LTG DSNT E
KGVT 241450Z AUTO 17010KT 10SM -RA SCT029 SCT034 BKN044 29/23 A2991 RMK AO2 LTG DSNT E
KGVT 241430Z AUTO 19007KT 10SM SCT026 BKN032 OVC038 28/22 A2992 RMK AO2
KGVT 241410Z AUTO 00000KT 10SM SCT023 BKN029 OVC038 28/22 A2993 RMK AO2
KGVT 241350Z AUTO 20007KT 10SM OVC025 28/22 A2993 RMK AO2
KGVT 241330Z AUTO 22006KT 10SM BKN025 BKN035 OVC044 29/22 A2992 RMK AO2
KGVT 241310Z AUTO 18009KT 10SM BKN025 BKN035 OVC044 28/22 A2989 RMK AO2 LTG DSNT NE
KGVT 241250Z AUTO 21006KT 10SM BKN025 OVC030 28/22 A2990 RMK AO2
KGVT 241230Z AUTO 20010KT 10SM BKN025 OVC033 28/22 A2987 RMK AO2
KGVT 241210Z AUTO 19007KT 10SM OVC025 28/22 A2986 RMK AO2
KGVT 241150Z AUTO 19009G19KT 10SM OVC025 28/22 A2983 RMK AO2
KGVT 241130Z AUTO 18008KT 10SM OVC027 28/22 A2982 RMK AO2
KGVT 241110Z AUTO 18010G15KT 10SM OVC027 28/22 A2981 RMK AO2
KGVT 241050Z AUTO 16013G23KT 10SM OVC027 27/22 A2978 RMK AO2
KGVT 241030Z AUTO 17014G20KT 10SM OVC027 28/22 A2978 RMK AO2
KGVT 241010Z AUTO 18010G19KT 10SM OVC025 28/22 A2979 RMK AO2
KGVT 240950Z AUTO 17012G17KT 10SM BKN025 28/22 A2978 RMK AO2
KGVT 240930Z AUTO 16013G22KT 10SM SCT023 28/22 A2975 RMK AO2
KGVT 240910Z AUTO 17016G27KT 10SM SCT023 28/22 A2975 RMK AO2 LTG DSNT N
KGVT 240850Z AUTO 16014G19KT 10SM BKN023 28/22 A2975 RMK AO2
KGVT 240830Z AUTO 15012G19KT 10SM OVC023 28/22 A2977 RMK AO2
KGVT 240810Z AUTO 16016G20KT 10SM BKN025 28/22 A2977 RMK AO2
KGVT 240750Z AUTO 17015G24KT 10SM BKN025 28/23 A2978 RMK AO2
KGVT 240730Z AUTO 17016G21KT 10SM SCT025 29/23 A2980 RMK AO2
KGVT 240710Z AUTO 17015G20KT 10SM CLR 29/23 A2982 RMK AO2
KGVT 240650Z AUTO 18013G19KT 10SM CLR 29/23 A2982 RMK AO2 LTG DSNT W
KGVT 240630Z AUTO 18011KT 10SM CLR 29/23 A2983 RMK AO2 LTG DSNT SW AND W
KGVT 240610Z AUTO 17009KT 10SM CLR 29/23 A2982 RMK AO2
KGVT 240550Z AUTO 17012KT 10SM CLR 30/22 A2982 RMK AO2 LTG DSNT W
KGVT 240530Z AUTO 17011G14KT 10SM CLR 30/22 A2982 RMK AO2 LTG DSNT SW
KGVT 240510Z AUTO 16008KT 10SM SCT039 28/22 A2981 RMK AO2 LTG DSNT W
KGVT 240450Z AUTO 00000KT 10SM SCT039 27/22 A2983 RMK AO2
KGVT 240430Z AUTO 13006KT 10SM SCT046 SCT050 27/22 A2981 RMK AO2
KGVT 240410Z AUTO 13003KT 10SM CLR 27/22 A2982 RMK AO2
KGVT 240350Z AUTO 13003KT 10SM SCT049 27/22 A2982 RMK AO2
KGVT 240330Z AUTO 00000KT 10SM SCT060 28/21 A2981 RMK AO2
KGVT 240310Z AUTO 11003KT 10SM CLR 28/21 A2980 RMK AO2
KGVT 240250Z AUTO 00000KT 10SM SCT060 28/21 A2979 RMK AO2
KGVT 240230Z AUTO 13004KT 10SM SCT060 29/21 A2978 RMK AO2
KGVT 240210Z AUTO 13003KT 10SM CLR 30/21 A2978 RMK AO2
KGVT 240150Z AUTO 13004KT 10SM CLR 30/22 A2978 RMK AO2
KGVT 240130Z AUTO 13003KT 10SM CLR 31/21 A2978 RMK AO2
KGVT 240110Z AUTO 15006KT 10SM CLR 32/20 A2978 RMK AO2
KGVT 240050Z AUTO 15007KT 10SM CLR 33/21 A2978 RMK AO2
KGVT 240030Z AUTO 14010KT 10SM CLR 33/20 A2978 RMK AO2
KGVT 240010Z AUTO 15009KT 10SM CLR 34/20 A2977 RMK AO2
KGVT 232350Z AUTO 14011KT 10SM CLR 35/19 A2977 RMK AO2
KGVT 232330Z AUTO 15014KT 10SM SCT055 34/20 A2977 RMK AO2
KGVT 232310Z AUTO 15014KT 10SM SCT055 35/21 A2977 RMK AO2
KGVT 232250Z AUTO 14013G17KT 10SM CLR 35/21 A2977 RMK AO2
KGVT 232230Z AUTO 15013KT 10SM SCT060 36/21 A2978 RMK AO2
KGVT 232210Z AUTO 15011KT 10SM SCT050 35/21 A2978 RMK AO2
KGVT 232150Z AUTO 15012KT 10SM CLR 35/21 A2978 RMK AO2
KGVT 232130Z AUTO 15013KT 10SM CLR 36/21 A2979 RMK AO2
KGVT 232110Z AUTO 16013G18KT 10SM SCT055 36/21 A2979 RMK AO2
KGVT 232050Z AUTO 14013KT 10SM SCT055 SCT065 35/22 A2979 RMK AO2
KGVT 232030Z AUTO 14014G17KT 10SM SCT050 SCT060 35/22 A2980 RMK AO2
KGVT 232010Z AUTO 14013G19KT 10SM SCT060 35/22 A2980 RMK AO2
KGVT 231950Z AUTO 16010G17KT 10SM CLR 35/22 A2981 RMK AO2
KGVT 231930Z AUTO 13013G17KT 10SM SCT036 SCT041 35/22 A2981 RMK AO2
KGVT 231910Z AUTO 14012KT 10SM SCT032 BKN041 34/23 A2982 RMK AO2
KGVT 231850Z AUTO 13012G16KT 10SM BKN032 33/23 A2984 RMK AO2
KGVT 231830Z AUTO 14010G16KT 10SM BKN028 BKN034 34/23 A2984 RMK AO2
KGVT 231810Z AUTO 14012KT 10SM OVC026 33/23 A2985 RMK AO2
KGVT 231750Z AUTO 15010G14KT 10SM BKN026 BKN031 32/23 A2986 RMK AO2
KGVT 231730Z AUTO 14009KT 10SM SCT026 32/23 A2987 RMK AO2
KGVT 231710Z AUTO 13008KT 10SM CLR 31/23 A2988 RMK AO2
KGVT 231650Z AUTO 10006KT 10SM CLR 30/23 A2989 RMK AO2
KGVT 231630Z AUTO 07008KT 10SM SCT020 28/22 A2990 RMK AO2
KGVT 231610Z AUTO 09007KT 10SM BKN016 OVC022 26/22 A2991 RMK AO2
KGVT 231550Z AUTO 07004KT 10SM OVC016 26/22 A2992 RMK AO2
KGVT 231530Z AUTO 06005KT 10SM OVC016 25/21 A2992 RMK AO2
KGVT 231510Z AUTO 07006KT 10SM OVC016 25/21 A2992 RMK AO2
KGVT 231450Z AUTO 08007KT 10SM OVC016 24/21 A2992 RMK AO2
KGVT 231430Z AUTO 04004KT 10SM VCTS OVC016 24/21 A2993 RMK AO2 LTG DSNT N
KGVT 231410Z AUTO 06006KT 10SM -VCTSRA OVC018 25/21 A2992 RMK AO2 LTG DSNT N
KGVT 231350Z AUTO 06008KT 10SM -RA OVC018 25/21 A2991 RMK AO2 LTG DSNT NE
KGVT 231330Z AUTO 04005KT 10SM -DZ OVC018 25/21 A2991 RMK AO2 LTG DSNT NW
KGVT 231310Z AUTO 02003KT 10SM RA OVC018 25/21 A2990 RMK AO2 LTG DSNT NW
KGVT 231250Z AUTO 00000KT 10SM OVC018 25/20 A2989 RMK AO2 LTG DSNT N AND NW
KGVT 231230Z AUTO 00000KT 10SM OVC020 25/20 A2987 RMK AO2 LTG DSNT N
KGVT 231210Z AUTO 00000KT 10SM BKN024 OVC029 26/19 A2985 RMK AO2
KGVT 231150Z AUTO 09003KT 10SM SCT027 BKN037 BKN043 25/19 A2984 RMK AO2
KGVT 231130Z AUTO 12006KT 10SM CLR 24/19 A2982 RMK AO2
KGVT 231110Z AUTO 13006KT 10SM CLR 24/19 A2982 RMK AO2
KGVT 231050Z AUTO 11004KT 10SM SCT030 SCT035 SCT044 25/19 A2984 RMK AO2
KGVT 231030Z AUTO 07004KT 10SM CLR 25/18 A2985 RMK AO2
KGVT 231010Z AUTO 07005KT 10SM SCT034 SCT049 BKN060 25/18 A2984 RMK AO2
KGVT 230950Z AUTO 06003KT 10SM BKN032 OVC040 26/18 A2984 RMK AO2
KGVT 230930Z AUTO 02008G16KT 10SM -RA OVC030 26/18 A2985 RMK AO2
KGVT 230910Z AUTO 02009G16KT 10SM OVC025 26/18 A2985 RMK AO2